sensor_id;sensor_type;location;lat;lon;timestamp;P1;durP1;ratioP1;P2;durP2;ratioP2
80217;SDS011;69533;37.974;23.708;2023-05-16T00:00:14;13.70;;;7.25;;
80217;SDS011;69533;37.974;23.708;2023-05-16T00:02:40;12.57;;;7.88;;
80217;SDS011;69533;37.974;23.708;2023-05-16T00:05:06;17.10;;;7.80;;
80217;SDS011;69533;37.974;23.708;2023-05-16T00:07:32;13.38;;;7.38;;
80217;SDS011;69533;37.974;23.708;2023-05-16T00:09:58;15.38;;;7.45;;
80217;SDS011;69533;37.974;23.708;2023-05-16T00:12:25;13.68;;;7.45;;
80217;SDS011;69533;37.974;23.708;2023-05-16T00:14:51;16.60;;;7.97;;
80217;SDS011;69533;37.974;23.708;2023-05-16T00:17:17;16.05;;;8.02;;
80217;SDS011;69533;37.974;23.708;2023-05-16T00:19:44;22.55;;;8.57;;
80217;SDS011;69533;37.974;23.708;2023-05-16T00:22:14;12.88;;;8.52;;
80217;SDS011;69533;37.974;23.708;2023-05-16T00:24:40;15.20;;;8.23;;
80217;SDS011;69533;37.974;23.708;2023-05-16T00:27:06;15.23;;;8.80;;
80217;SDS011;69533;37.974;23.708;2023-05-16T00:29:33;17.60;;;8.50;;
80217;SDS011;69533;37.974;23.708;2023-05-16T00:31:59;19.75;;;8.70;;
80217;SDS011;69533;37.974;23.708;2023-05-16T00:34:25;16.30;;;8.73;;
80217;SDS011;69533;37.974;23.708;2023-05-16T00:36:50;18.00;;;8.27;;
80217;SDS011;69533;37.974;23.708;2023-05-16T00:39:17;15.90;;;8.88;;
80217;SDS011;69533;37.974;23.708;2023-05-16T00:41:43;14.07;;;8.40;;
80217;SDS011;69533;37.974;23.708;2023-05-16T00:44:09;13.50;;;8.88;;
80217;SDS011;69533;37.974;23.708;2023-05-16T00:46:35;14.68;;;8.40;;
80217;SDS011;69533;37.974;23.708;2023-05-16T00:49:01;17.20;;;8.52;;
80217;SDS011;69533;37.974;23.708;2023-05-16T00:51:27;12.50;;;8.55;;
80217;SDS011;69533;37.974;23.708;2023-05-16T00:53:53;15.00;;;8.68;;
80217;SDS011;69533;37.974;23.708;2023-05-16T00:56:20;20.58;;;9.48;;
80217;SDS011;69533;37.974;23.708;2023-05-16T00:58:46;15.70;;;8.48;;
80217;SDS011;69533;37.974;23.708;2023-05-16T01:01:12;18.23;;;8.75;;
80217;SDS011;69533;37.974;23.708;2023-05-16T01:03:38;13.73;;;8.02;;
80217;SDS011;69533;37.974;23.708;2023-05-16T01:06:04;17.30;;;8.45;;
80217;SDS011;69533;37.974;23.708;2023-05-16T01:08:30;13.40;;;8.10;;
80217;SDS011;69533;37.974;23.708;2023-05-16T01:11:15;14.45;;;8.10;;
80217;SDS011;69533;37.974;23.708;2023-05-16T01:17:13;13.63;;;7.38;;
80217;SDS011;69533;37.974;23.708;2023-05-16T01:20:08;17.27;;;7.95;;
80217;SDS011;69533;37.974;23.708;2023-05-16T01:28:15;11.70;;;7.03;;
80217;SDS011;69533;37.974;23.708;2023-05-16T01:30:42;11.77;;;7.30;;
80217;SDS011;69533;37.974;23.708;2023-05-16T01:33:08;14.77;;;7.38;;
80217;SDS011;69533;37.974;23.708;2023-05-16T01:35:35;12.77;;;7.40;;
80217;SDS011;69533;37.974;23.708;2023-05-16T01:38:25;10.80;;;6.78;;
80217;SDS011;69533;37.974;23.708;2023-05-16T01:43:48;10.73;;;5.88;;
80217;SDS011;69533;37.974;23.708;2023-05-16T01:46:20;12.55;;;6.65;;
80217;SDS011;69533;37.974;23.708;2023-05-16T01:52:03;10.40;;;6.32;;
80217;SDS011;69533;37.974;23.708;2023-05-16T01:54:33;12.05;;;5.85;;
80217;SDS011;69533;37.974;23.708;2023-05-16T01:57:03;9.98;;;6.47;;
80217;SDS011;69533;37.974;23.708;2023-05-16T01:59:32;10.15;;;6.35;;
80217;SDS011;69533;37.974;23.708;2023-05-16T02:01:58;8.35;;;5.20;;
80217;SDS011;69533;37.974;23.708;2023-05-16T02:04:24;10.32;;;6.18;;
80217;SDS011;69533;37.974;23.708;2023-05-16T02:06:50;11.05;;;5.97;;
80217;SDS011;69533;37.974;23.708;2023-05-16T02:09:16;13.13;;;6.60;;
80217;SDS011;69533;37.974;23.708;2023-05-16T02:11:42;10.07;;;5.85;;
80217;SDS011;69533;37.974;23.708;2023-05-16T02:14:08;9.25;;;5.57;;
80217;SDS011;69533;37.974;23.708;2023-05-16T02:16:34;8.00;;;5.28;;
80217;SDS011;69533;37.974;23.708;2023-05-16T02:19:00;13.57;;;6.32;;
80217;SDS011;69533;37.974;23.708;2023-05-16T02:21:26;10.68;;;6.72;;
80217;SDS011;69533;37.974;23.708;2023-05-16T02:23:51;10.57;;;5.45;;
80217;SDS011;69533;37.974;23.708;2023-05-16T02:26:17;7.63;;;5.95;;
80217;SDS011;69533;37.974;23.708;2023-05-16T02:28:43;14.30;;;6.32;;
80217;SDS011;69533;37.974;23.708;2023-05-16T02:31:09;11.50;;;6.35;;
80217;SDS011;69533;37.974;23.708;2023-05-16T02:33:34;10.55;;;5.63;;
80217;SDS011;69533;37.974;23.708;2023-05-16T02:36:00;13.38;;;6.45;;
80217;SDS011;69533;37.974;23.708;2023-05-16T02:38:26;10.45;;;6.20;;
80217;SDS011;69533;37.974;23.708;2023-05-16T02:40:52;14.63;;;6.45;;
80217;SDS011;69533;37.974;23.708;2023-05-16T02:43:17;10.10;;;5.72;;
80217;SDS011;69533;37.974;23.708;2023-05-16T02:45:43;10.68;;;5.85;;
80217;SDS011;69533;37.974;23.708;2023-05-16T02:48:09;10.80;;;5.78;;
80217;SDS011;69533;37.974;23.708;2023-05-16T02:50:35;11.38;;;5.93;;
80217;SDS011;69533;37.974;23.708;2023-05-16T02:53:01;10.55;;;6.10;;
80217;SDS011;69533;37.974;23.708;2023-05-16T02:55:27;12.27;;;6.53;;
80217;SDS011;69533;37.974;23.708;2023-05-16T02:57:53;16.55;;;6.95;;
80217;SDS011;69533;37.974;23.708;2023-05-16T03:00:19;10.48;;;6.43;;
80217;SDS011;69533;37.974;23.708;2023-05-16T03:02:45;10.57;;;6.05;;
80217;SDS011;69533;37.974;23.708;2023-05-16T03:05:11;13.95;;;6.40;;
80217;SDS011;69533;37.974;23.708;2023-05-16T03:07:37;12.30;;;6.00;;
80217;SDS011;69533;37.974;23.708;2023-05-16T03:10:03;13.38;;;6.75;;
80217;SDS011;69533;37.974;23.708;2023-05-16T03:12:29;12.73;;;6.00;;
80217;SDS011;69533;37.974;23.708;2023-05-16T03:14:55;9.00;;;5.25;;
80217;SDS011;69533;37.974;23.708;2023-05-16T03:17:21;10.40;;;6.22;;
80217;SDS011;69533;37.974;23.708;2023-05-16T03:19:47;8.73;;;6.28;;
80217;SDS011;69533;37.974;23.708;2023-05-16T03:22:13;14.57;;;6.90;;
80217;SDS011;69533;37.974;23.708;2023-05-16T03:24:39;11.07;;;6.05;;
80217;SDS011;69533;37.974;23.708;2023-05-16T03:27:04;12.02;;;6.07;;
80217;SDS011;69533;37.974;23.708;2023-05-16T03:29:30;16.33;;;6.85;;
80217;SDS011;69533;37.974;23.708;2023-05-16T03:31:56;15.32;;;6.45;;
80217;SDS011;69533;37.974;23.708;2023-05-16T03:34:22;14.98;;;7.28;;
80217;SDS011;69533;37.974;23.708;2023-05-16T03:36:48;13.50;;;6.57;;
80217;SDS011;69533;37.974;23.708;2023-05-16T03:39:15;15.07;;;6.68;;
80217;SDS011;69533;37.974;23.708;2023-05-16T03:41:41;19.80;;;6.95;;
80217;SDS011;69533;37.974;23.708;2023-05-16T03:44:06;12.73;;;5.63;;
80217;SDS011;69533;37.974;23.708;2023-05-16T03:46:32;18.33;;;7.05;;
80217;SDS011;69533;37.974;23.708;2023-05-16T03:48:59;16.77;;;7.35;;
80217;SDS011;69533;37.974;23.708;2023-05-16T03:51:25;16.23;;;6.93;;
80217;SDS011;69533;37.974;23.708;2023-05-16T03:53:51;17.80;;;7.13;;
80217;SDS011;69533;37.974;23.708;2023-05-16T03:56:16;17.75;;;6.95;;
80217;SDS011;69533;37.974;23.708;2023-05-16T03:58:42;10.82;;;7.13;;
80217;SDS011;69533;37.974;23.708;2023-05-16T04:01:08;16.85;;;6.85;;
80217;SDS011;69533;37.974;23.708;2023-05-16T04:03:33;10.40;;;6.20;;
80217;SDS011;69533;37.974;23.708;2023-05-16T04:06:00;15.43;;;7.32;;
80217;SDS011;69533;37.974;23.708;2023-05-16T04:08:25;13.55;;;6.00;;
80217;SDS011;69533;37.974;23.708;2023-05-16T04:10:51;15.43;;;6.35;;
80217;SDS011;69533;37.974;23.708;2023-05-16T04:13:17;10.18;;;5.47;;
80217;SDS011;69533;37.974;23.708;2023-05-16T04:15:43;11.98;;;6.45;;
80217;SDS011;69533;37.974;23.708;2023-05-16T04:18:08;12.85;;;6.00;;
80217;SDS011;69533;37.974;23.708;2023-05-16T04:20:34;32.22;;;7.70;;
80217;SDS011;69533;37.974;23.708;2023-05-16T04:23:01;30.48;;;8.48;;
80217;SDS011;69533;37.974;23.708;2023-05-16T04:25:26;22.48;;;8.25;;
80217;SDS011;69533;37.974;23.708;2023-05-16T04:27:52;29.23;;;7.88;;
80217;SDS011;69533;37.974;23.708;2023-05-16T04:30:18;28.45;;;7.78;;
80217;SDS011;69533;37.974;23.708;2023-05-16T04:32:43;21.02;;;7.60;;
80217;SDS011;69533;37.974;23.708;2023-05-16T04:35:09;16.05;;;6.38;;
80217;SDS011;69533;37.974;23.708;2023-05-16T04:37:35;19.35;;;6.75;;
80217;SDS011;69533;37.974;23.708;2023-05-16T04:40:01;21.58;;;7.65;;
80217;SDS011;69533;37.974;23.708;2023-05-16T04:42:27;22.15;;;6.65;;
80217;SDS011;69533;37.974;23.708;2023-05-16T04:44:53;14.45;;;6.47;;
80217;SDS011;69533;37.974;23.708;2023-05-16T04:47:20;13.52;;;6.72;;
80217;SDS011;69533;37.974;23.708;2023-05-16T04:49:46;17.50;;;6.53;;
80217;SDS011;69533;37.974;23.708;2023-05-16T04:52:11;21.55;;;7.10;;
80217;SDS011;69533;37.974;23.708;2023-05-16T04:54:37;13.77;;;5.82;;
80217;SDS011;69533;37.974;23.708;2023-05-16T04:57:03;12.65;;;5.78;;
80217;SDS011;69533;37.974;23.708;2023-05-16T04:59:29;12.38;;;6.28;;
80217;SDS011;69533;37.974;23.708;2023-05-16T05:01:55;15.13;;;6.20;;
80217;SDS011;69533;37.974;23.708;2023-05-16T05:04:21;13.35;;;5.78;;
80217;SDS011;69533;37.974;23.708;2023-05-16T05:06:47;15.63;;;6.45;;
80217;SDS011;69533;37.974;23.708;2023-05-16T05:09:12;9.98;;;5.63;;
80217;SDS011;69533;37.974;23.708;2023-05-16T05:11:38;11.90;;;5.78;;
80217;SDS011;69533;37.974;23.708;2023-05-16T05:14:04;15.57;;;6.22;;
80217;SDS011;69533;37.974;23.708;2023-05-16T05:16:29;17.85;;;7.45;;
80217;SDS011;69533;37.974;23.708;2023-05-16T05:18:55;9.20;;;5.63;;
80217;SDS011;69533;37.974;23.708;2023-05-16T05:21:21;13.90;;;5.90;;
80217;SDS011;69533;37.974;23.708;2023-05-16T05:23:49;11.85;;;6.00;;
80217;SDS011;69533;37.974;23.708;2023-05-16T05:26:15;14.18;;;5.55;;
80217;SDS011;69533;37.974;23.708;2023-05-16T05:28:41;12.35;;;5.70;;
80217;SDS011;69533;37.974;23.708;2023-05-16T05:31:07;14.07;;;5.50;;
80217;SDS011;69533;37.974;23.708;2023-05-16T05:33:32;10.50;;;5.05;;
80217;SDS011;69533;37.974;23.708;2023-05-16T05:35:58;13.02;;;4.85;;
80217;SDS011;69533;37.974;23.708;2023-05-16T05:38:24;14.65;;;5.30;;
80217;SDS011;69533;37.974;23.708;2023-05-16T05:40:50;12.15;;;5.05;;
80217;SDS011;69533;37.974;23.708;2023-05-16T05:43:16;10.30;;;5.15;;
80217;SDS011;69533;37.974;23.708;2023-05-16T05:45:42;10.70;;;4.72;;
80217;SDS011;69533;37.974;23.708;2023-05-16T05:48:08;8.85;;;4.70;;
80217;SDS011;69533;37.974;23.708;2023-05-16T05:50:34;15.55;;;5.05;;
80217;SDS011;69533;37.974;23.708;2023-05-16T05:53:00;10.07;;;4.72;;
80217;SDS011;69533;37.974;23.708;2023-05-16T05:55:26;8.30;;;3.90;;
80217;SDS011;69533;37.974;23.708;2023-05-16T05:57:52;8.85;;;5.07;;
80217;SDS011;69533;37.974;23.708;2023-05-16T06:00:18;11.07;;;4.30;;
80217;SDS011;69533;37.974;23.708;2023-05-16T06:02:43;7.30;;;3.78;;
80217;SDS011;69533;37.974;23.708;2023-05-16T06:05:09;8.93;;;4.55;;
80217;SDS011;69533;37.974;23.708;2023-05-16T06:07:35;9.93;;;4.68;;
80217;SDS011;69533;37.974;23.708;2023-05-16T06:10:01;9.25;;;3.70;;
80217;SDS011;69533;37.974;23.708;2023-05-16T06:12:29;10.25;;;3.83;;
80217;SDS011;69533;37.974;23.708;2023-05-16T06:14:55;7.78;;;3.65;;
80217;SDS011;69533;37.974;23.708;2023-05-16T06:17:20;5.28;;;3.28;;
80217;SDS011;69533;37.974;23.708;2023-05-16T06:19:46;9.20;;;3.22;;
80217;SDS011;69533;37.974;23.708;2023-05-16T06:22:12;8.75;;;3.50;;
80217;SDS011;69533;37.974;23.708;2023-05-16T06:24:38;7.72;;;3.10;;
80217;SDS011;69533;37.974;23.708;2023-05-16T06:27:04;6.97;;;4.45;;
80217;SDS011;69533;37.974;23.708;2023-05-16T06:29:31;5.63;;;3.55;;
80217;SDS011;69533;37.974;23.708;2023-05-16T06:31:56;8.05;;;3.85;;
80217;SDS011;69533;37.974;23.708;2023-05-16T06:34:22;6.07;;;3.55;;
80217;SDS011;69533;37.974;23.708;2023-05-16T06:36:52;6.30;;;3.65;;
80217;SDS011;69533;37.974;23.708;2023-05-16T06:39:18;6.63;;;3.30;;
80217;SDS011;69533;37.974;23.708;2023-05-16T06:41:44;5.88;;;3.67;;
80217;SDS011;69533;37.974;23.708;2023-05-16T06:44:10;5.30;;;2.38;;
80217;SDS011;69533;37.974;23.708;2023-05-16T06:46:36;4.32;;;2.72;;
80217;SDS011;69533;37.974;23.708;2023-05-16T06:49:02;13.55;;;3.97;;
80217;SDS011;69533;37.974;23.708;2023-05-16T06:51:28;11.95;;;3.33;;
80217;SDS011;69533;37.974;23.708;2023-05-16T06:53:55;8.07;;;3.53;;
80217;SDS011;69533;37.974;23.708;2023-05-16T06:56:21;11.30;;;3.50;;
80217;SDS011;69533;37.974;23.708;2023-05-16T06:58:47;10.35;;;4.05;;
80217;SDS011;69533;37.974;23.708;2023-05-16T07:01:13;7.60;;;4.20;;
80217;SDS011;69533;37.974;23.708;2023-05-16T07:03:40;12.32;;;4.15;;
80217;SDS011;69533;37.974;23.708;2023-05-16T07:06:05;15.75;;;4.30;;
80217;SDS011;69533;37.974;23.708;2023-05-16T07:08:31;15.32;;;4.22;;
80217;SDS011;69533;37.974;23.708;2023-05-16T07:10:59;10.60;;;4.07;;
80217;SDS011;69533;37.974;23.708;2023-05-16T07:13:26;10.57;;;4.07;;
80217;SDS011;69533;37.974;23.708;2023-05-16T07:15:52;9.00;;;3.60;;
80217;SDS011;69533;37.974;23.708;2023-05-16T07:18:18;6.38;;;3.30;;
80217;SDS011;69533;37.974;23.708;2023-05-16T07:20:43;10.48;;;3.65;;
80217;SDS011;69533;37.974;23.708;2023-05-16T07:23:10;16.83;;;4.28;;
80217;SDS011;69533;37.974;23.708;2023-05-16T07:25:36;13.32;;;3.58;;
80217;SDS011;69533;37.974;23.708;2023-05-16T07:28:02;11.38;;;3.55;;
80217;SDS011;69533;37.974;23.708;2023-05-16T07:30:28;13.32;;;2.92;;
80217;SDS011;69533;37.974;23.708;2023-05-16T07:32:54;8.32;;;3.35;;
80217;SDS011;69533;37.974;23.708;2023-05-16T07:35:20;10.75;;;3.30;;
80217;SDS011;69533;37.974;23.708;2023-05-16T07:37:46;6.07;;;3.35;;
80217;SDS011;69533;37.974;23.708;2023-05-16T07:40:12;10.68;;;3.75;;
80217;SDS011;69533;37.974;23.708;2023-05-16T07:42:38;10.98;;;3.65;;
80217;SDS011;69533;37.974;23.708;2023-05-16T07:45:04;10.95;;;3.38;;
80217;SDS011;69533;37.974;23.708;2023-05-16T07:47:31;13.63;;;3.90;;
80217;SDS011;69533;37.974;23.708;2023-05-16T07:49:57;11.57;;;4.18;;
80217;SDS011;69533;37.974;23.708;2023-05-16T07:52:23;11.90;;;4.07;;
80217;SDS011;69533;37.974;23.708;2023-05-16T07:54:48;11.20;;;3.90;;
80217;SDS011;69533;37.974;23.708;2023-05-16T07:57:14;8.48;;;3.50;;
80217;SDS011;69533;37.974;23.708;2023-05-16T07:59:41;12.40;;;4.78;;
80217;SDS011;69533;37.974;23.708;2023-05-16T08:02:07;12.80;;;4.10;;
80217;SDS011;69533;37.974;23.708;2023-05-16T08:04:34;9.57;;;3.22;;
80217;SDS011;69533;37.974;23.708;2023-05-16T08:07:00;7.03;;;3.40;;
80217;SDS011;69533;37.974;23.708;2023-05-16T08:09:26;6.20;;;3.30;;
80217;SDS011;69533;37.974;23.708;2023-05-16T08:11:52;7.30;;;3.15;;
80217;SDS011;69533;37.974;23.708;2023-05-16T08:14:55;8.13;;;3.15;;
80217;SDS011;69533;37.974;23.708;2023-05-16T08:17:21;7.03;;;3.25;;
80217;SDS011;69533;37.974;23.708;2023-05-16T08:19:47;5.30;;;2.80;;
80217;SDS011;69533;37.974;23.708;2023-05-16T08:22:12;9.70;;;3.03;;
80217;SDS011;69533;37.974;23.708;2023-05-16T08:24:38;8.05;;;3.28;;
80217;SDS011;69533;37.974;23.708;2023-05-16T08:27:04;7.75;;;3.55;;
80217;SDS011;69533;37.974;23.708;2023-05-16T08:29:30;9.85;;;3.28;;
80217;SDS011;69533;37.974;23.708;2023-05-16T08:31:55;13.55;;;3.40;;
80217;SDS011;69533;37.974;23.708;2023-05-16T08:34:21;14.13;;;3.22;;
80217;SDS011;69533;37.974;23.708;2023-05-16T08:36:47;8.73;;;3.25;;
80217;SDS011;69533;37.974;23.708;2023-05-16T08:39:13;7.72;;;3.53;;
80217;SDS011;69533;37.974;23.708;2023-05-16T08:41:38;8.60;;;3.33;;
80217;SDS011;69533;37.974;23.708;2023-05-16T08:44:05;7.32;;;2.97;;
80217;SDS011;69533;37.974;23.708;2023-05-16T08:46:31;5.28;;;2.97;;
80217;SDS011;69533;37.974;23.708;2023-05-16T08:48:59;10.98;;;3.22;;
80217;SDS011;69533;37.974;23.708;2023-05-16T08:51:30;9.57;;;3.33;;
80217;SDS011;69533;37.974;23.708;2023-05-16T08:54:02;11.93;;;3.40;;
80217;SDS011;69533;37.974;23.708;2023-05-16T08:56:30;5.68;;;2.95;;
80217;SDS011;69533;37.974;23.708;2023-05-16T08:58:57;6.90;;;3.00;;
80217;SDS011;69533;37.974;23.708;2023-05-16T09:01:24;5.20;;;2.30;;
80217;SDS011;69533;37.974;23.708;2023-05-16T09:03:51;5.70;;;2.95;;
80217;SDS011;69533;37.974;23.708;2023-05-16T09:06:17;7.30;;;3.35;;
80217;SDS011;69533;37.974;23.708;2023-05-16T09:08:43;5.38;;;2.75;;
80217;SDS011;69533;37.974;23.708;2023-05-16T09:11:09;6.53;;;3.15;;
80217;SDS011;69533;37.974;23.708;2023-05-16T09:13:36;6.60;;;3.05;;
80217;SDS011;69533;37.974;23.708;2023-05-16T09:16:13;7.63;;;3.42;;
80217;SDS011;69533;37.974;23.708;2023-05-16T09:18:41;7.68;;;3.10;;
80217;SDS011;69533;37.974;23.708;2023-05-16T09:21:09;5.55;;;2.75;;
80217;SDS011;69533;37.974;23.708;2023-05-16T09:23:35;6.00;;;3.15;;
80217;SDS011;69533;37.974;23.708;2023-05-16T09:26:02;9.50;;;3.13;;
80217;SDS011;69533;37.974;23.708;2023-05-16T09:28:32;7.80;;;3.63;;
80217;SDS011;69533;37.974;23.708;2023-05-16T09:30:58;7.18;;;3.13;;
80217;SDS011;69533;37.974;23.708;2023-05-16T09:33:28;5.88;;;3.00;;
80217;SDS011;69533;37.974;23.708;2023-05-16T09:36:02;3.72;;;2.65;;
80217;SDS011;69533;37.974;23.708;2023-05-16T09:38:28;8.32;;;3.08;;
80217;SDS011;69533;37.974;23.708;2023-05-16T09:40:54;4.03;;;2.42;;
80217;SDS011;69533;37.974;23.708;2023-05-16T09:43:21;3.85;;;2.10;;
80217;SDS011;69533;37.974;23.708;2023-05-16T09:45:50;6.38;;;2.90;;
80217;SDS011;69533;37.974;23.708;2023-05-16T09:48:17;4.43;;;2.53;;
80217;SDS011;69533;37.974;23.708;2023-05-16T09:50:49;4.38;;;2.70;;
80217;SDS011;69533;37.974;23.708;2023-05-16T09:53:16;5.20;;;2.42;;
80217;SDS011;69533;37.974;23.708;2023-05-16T09:55:52;5.28;;;3.00;;
80217;SDS011;69533;37.974;23.708;2023-05-16T09:58:28;6.68;;;2.70;;
80217;SDS011;69533;37.974;23.708;2023-05-16T10:00:56;4.13;;;2.17;;
80217;SDS011;69533;37.974;23.708;2023-05-16T10:03:23;6.30;;;2.42;;
80217;SDS011;69533;37.974;23.708;2023-05-16T10:05:51;6.70;;;2.17;;
80217;SDS011;69533;37.974;23.708;2023-05-16T10:08:19;6.25;;;2.60;;
80217;SDS011;69533;37.974;23.708;2023-05-16T10:10:45;6.90;;;2.60;;
80217;SDS011;69533;37.974;23.708;2023-05-16T10:13:18;4.82;;;2.60;;
80217;SDS011;69533;37.974;23.708;2023-05-16T10:15:48;5.60;;;2.40;;
80217;SDS011;69533;37.974;23.708;2023-05-16T10:18:15;3.58;;;2.05;;
80217;SDS011;69533;37.974;23.708;2023-05-16T10:20:43;6.30;;;2.50;;
80217;SDS011;69533;37.974;23.708;2023-05-16T10:23:15;5.00;;;2.30;;
80217;SDS011;69533;37.974;23.708;2023-05-16T10:25:42;5.72;;;2.65;;
80217;SDS011;69533;37.974;23.708;2023-05-16T10:28:10;6.38;;;2.60;;
80217;SDS011;69533;37.974;23.708;2023-05-16T10:30:36;5.20;;;2.40;;
80217;SDS011;69533;37.974;23.708;2023-05-16T10:33:08;5.85;;;2.13;;
80217;SDS011;69533;37.974;23.708;2023-05-16T10:35:38;5.03;;;2.38;;
80217;SDS011;69533;37.974;23.708;2023-05-16T10:38:04;3.15;;;2.55;;
80217;SDS011;69533;37.974;23.708;2023-05-16T10:40:31;4.40;;;2.30;;
80217;SDS011;69533;37.974;23.708;2023-05-16T10:42:59;3.40;;;2.30;;
80217;SDS011;69533;37.974;23.708;2023-05-16T10:45:26;3.97;;;2.28;;
80217;SDS011;69533;37.974;23.708;2023-05-16T10:53:20;4.40;;;2.35;;
80217;SDS011;69533;37.974;23.708;2023-05-16T11:01:18;5.22;;;2.55;;
80217;SDS011;69533;37.974;23.708;2023-05-16T11:04:08;3.92;;;2.28;;
80217;SDS011;69533;37.974;23.708;2023-05-16T11:14:26;4.63;;;2.55;;
80217;SDS011;69533;37.974;23.708;2023-05-16T11:17:02;3.92;;;2.58;;
80217;SDS011;69533;37.974;23.708;2023-05-16T11:30:14;3.15;;;2.70;;
80217;SDS011;69533;37.974;23.708;2023-05-16T11:32:42;6.18;;;3.03;;
80217;SDS011;69533;37.974;23.708;2023-05-16T11:35:10;4.20;;;2.40;;
80217;SDS011;69533;37.974;23.708;2023-05-16T11:37:41;4.15;;;2.50;;
80217;SDS011;69533;37.974;23.708;2023-05-16T11:40:08;6.93;;;2.95;;
80217;SDS011;69533;37.974;23.708;2023-05-16T11:47:34;5.38;;;2.70;;
80217;SDS011;69533;37.974;23.708;2023-05-16T11:50:06;5.07;;;2.92;;
80217;SDS011;69533;37.974;23.708;2023-05-16T11:52:35;5.00;;;3.35;;
80217;SDS011;69533;37.974;23.708;2023-05-16T11:55:03;5.20;;;2.70;;
80217;SDS011;69533;37.974;23.708;2023-05-16T11:57:31;6.15;;;2.80;;
80217;SDS011;69533;37.974;23.708;2023-05-16T12:00:03;7.03;;;2.83;;
80217;SDS011;69533;37.974;23.708;2023-05-16T12:02:37;5.68;;;2.80;;
80217;SDS011;69533;37.974;23.708;2023-05-16T12:05:08;11.45;;;3.95;;
80217;SDS011;69533;37.974;23.708;2023-05-16T12:07:35;5.95;;;3.08;;
80217;SDS011;69533;37.974;23.708;2023-05-16T12:10:05;5.25;;;3.33;;
80217;SDS011;69533;37.974;23.708;2023-05-16T12:12:38;9.75;;;3.17;;
80217;SDS011;69533;37.974;23.708;2023-05-16T12:15:06;4.38;;;2.80;;
80217;SDS011;69533;37.974;23.708;2023-05-16T12:17:37;12.55;;;3.33;;
80217;SDS011;69533;37.974;23.708;2023-05-16T12:20:04;6.13;;;3.35;;
80217;SDS011;69533;37.974;23.708;2023-05-16T12:22:31;4.40;;;2.97;;
80217;SDS011;69533;37.974;23.708;2023-05-16T12:27:47;11.45;;;3.22;;
80217;SDS011;69533;37.974;23.708;2023-05-16T12:30:15;6.57;;;3.13;;
80217;SDS011;69533;37.974;23.708;2023-05-16T12:32:41;7.22;;;3.58;;
80217;SDS011;69533;37.974;23.708;2023-05-16T12:35:07;6.13;;;3.47;;
80217;SDS011;69533;37.974;23.708;2023-05-16T12:37:35;7.93;;;3.70;;
80217;SDS011;69533;37.974;23.708;2023-05-16T12:40:01;6.32;;;3.70;;
80217;SDS011;69533;37.974;23.708;2023-05-16T12:42:28;6.30;;;3.38;;
80217;SDS011;69533;37.974;23.708;2023-05-16T12:44:54;4.57;;;3.05;;
80217;SDS011;69533;37.974;23.708;2023-05-16T12:47:20;7.63;;;3.05;;
80217;SDS011;69533;37.974;23.708;2023-05-16T12:49:46;4.43;;;2.78;;
80217;SDS011;69533;37.974;23.708;2023-05-16T12:52:20;3.67;;;2.58;;
80217;SDS011;69533;37.974;23.708;2023-05-16T12:54:46;3.90;;;2.60;;
80217;SDS011;69533;37.974;23.708;2023-05-16T12:57:12;5.38;;;2.83;;
80217;SDS011;69533;37.974;23.708;2023-05-16T12:59:38;10.02;;;4.03;;
80217;SDS011;69533;37.974;23.708;2023-05-16T13:02:04;6.78;;;3.08;;
80217;SDS011;69533;37.974;23.708;2023-05-16T13:04:30;6.68;;;3.30;;
80217;SDS011;69533;37.974;23.708;2023-05-16T13:06:56;6.10;;;3.15;;
80217;SDS011;69533;37.974;23.708;2023-05-16T13:09:22;7.07;;;3.30;;
80217;SDS011;69533;37.974;23.708;2023-05-16T13:11:48;5.90;;;3.67;;
80217;SDS011;69533;37.974;23.708;2023-05-16T13:14:14;4.57;;;2.70;;
80217;SDS011;69533;37.974;23.708;2023-05-16T13:16:43;5.60;;;3.08;;
80217;SDS011;69533;37.974;23.708;2023-05-16T13:19:09;4.35;;;2.85;;
80217;SDS011;69533;37.974;23.708;2023-05-16T13:21:35;5.18;;;3.20;;
80217;SDS011;69533;37.974;23.708;2023-05-16T13:24:02;7.20;;;3.60;;
80217;SDS011;69533;37.974;23.708;2023-05-16T13:26:28;3.78;;;2.60;;
80217;SDS011;69533;37.974;23.708;2023-05-16T13:28:54;4.32;;;2.92;;
80217;SDS011;69533;37.974;23.708;2023-05-16T13:31:20;4.50;;;2.67;;
80217;SDS011;69533;37.974;23.708;2023-05-16T13:33:50;4.38;;;3.33;;
80217;SDS011;69533;37.974;23.708;2023-05-16T13:36:16;4.68;;;3.17;;
80217;SDS011;69533;37.974;23.708;2023-05-16T13:38:41;4.13;;;2.70;;
80217;SDS011;69533;37.974;23.708;2023-05-16T13:41:07;7.00;;;3.35;;
80217;SDS011;69533;37.974;23.708;2023-05-16T13:43:33;9.25;;;3.88;;
80217;SDS011;69533;37.974;23.708;2023-05-16T13:45:59;4.68;;;3.03;;
80217;SDS011;69533;37.974;23.708;2023-05-16T13:48:25;4.60;;;2.92;;
80217;SDS011;69533;37.974;23.708;2023-05-16T13:50:50;6.50;;;3.42;;
80217;SDS011;69533;37.974;23.708;2023-05-16T13:53:17;9.73;;;3.92;;
80217;SDS011;69533;37.974;23.708;2023-05-16T13:55:44;4.90;;;3.35;;
80217;SDS011;69533;37.974;23.708;2023-05-16T13:58:10;6.22;;;3.20;;
80217;SDS011;69533;37.974;23.708;2023-05-16T14:00:36;5.32;;;3.05;;
80217;SDS011;69533;37.974;23.708;2023-05-16T14:03:01;5.20;;;3.45;;
80217;SDS011;69533;37.974;23.708;2023-05-16T14:05:27;5.78;;;3.88;;
80217;SDS011;69533;37.974;23.708;2023-05-16T14:07:53;7.63;;;3.60;;
80217;SDS011;69533;37.974;23.708;2023-05-16T14:10:19;5.45;;;3.67;;
80217;SDS011;69533;37.974;23.708;2023-05-16T14:12:45;5.05;;;3.67;;
80217;SDS011;69533;37.974;23.708;2023-05-16T14:15:11;7.70;;;4.00;;
80217;SDS011;69533;37.974;23.708;2023-05-16T14:17:36;7.93;;;4.07;;
80217;SDS011;69533;37.974;23.708;2023-05-16T14:20:02;9.18;;;4.75;;
80217;SDS011;69533;37.974;23.708;2023-05-16T14:22:33;8.57;;;4.50;;
80217;SDS011;69533;37.974;23.708;2023-05-16T14:24:59;7.85;;;3.65;;
80217;SDS011;69533;37.974;23.708;2023-05-16T14:27:25;10.65;;;4.47;;
80217;SDS011;69533;37.974;23.708;2023-05-16T14:29:51;7.68;;;4.55;;
80217;SDS011;69533;37.974;23.708;2023-05-16T14:32:16;7.85;;;4.13;;
80217;SDS011;69533;37.974;23.708;2023-05-16T14:34:42;6.07;;;3.88;;
80217;SDS011;69533;37.974;23.708;2023-05-16T14:37:08;7.00;;;4.40;;
80217;SDS011;69533;37.974;23.708;2023-05-16T14:39:34;7.32;;;4.00;;
80217;SDS011;69533;37.974;23.708;2023-05-16T14:42:00;6.38;;;3.80;;
80217;SDS011;69533;37.974;23.708;2023-05-16T14:44:26;8.07;;;3.75;;
80217;SDS011;69533;37.974;23.708;2023-05-16T14:46:51;8.15;;;4.00;;
80217;SDS011;69533;37.974;23.708;2023-05-16T14:49:18;7.60;;;4.20;;
80217;SDS011;69533;37.974;23.708;2023-05-16T14:51:44;5.78;;;3.72;;
80217;SDS011;69533;37.974;23.708;2023-05-16T14:54:13;7.43;;;4.00;;
80217;SDS011;69533;37.974;23.708;2023-05-16T14:56:39;8.77;;;4.47;;
80217;SDS011;69533;37.974;23.708;2023-05-16T14:59:04;10.27;;;5.15;;
80217;SDS011;69533;37.974;23.708;2023-05-16T15:01:30;10.38;;;5.18;;
80217;SDS011;69533;37.974;23.708;2023-05-16T15:03:56;13.75;;;5.35;;
80217;SDS011;69533;37.974;23.708;2023-05-16T15:06:22;8.80;;;4.55;;
80217;SDS011;69533;37.974;23.708;2023-05-16T15:08:48;9.68;;;4.75;;
80217;SDS011;69533;37.974;23.708;2023-05-16T15:11:14;12.95;;;6.15;;
80217;SDS011;69533;37.974;23.708;2023-05-16T15:13:40;16.80;;;4.70;;
80217;SDS011;69533;37.974;23.708;2023-05-16T15:16:06;15.75;;;5.38;;
80217;SDS011;69533;37.974;23.708;2023-05-16T15:18:32;13.95;;;4.55;;